sensor_id;sensor_type;location;lat;lon;timestamp;P1;durP1;ratioP1;P2;durP2;ratioP2
57846;SDS011;43675;50.030;21.952;2022-07-18T00:00:24;15.75;;;14.35;;
57846;SDS011;43675;50.030;21.952;2022-07-18T00:02:52;15.70;;;14.40;;
57846;SDS011;43675;50.030;21.952;2022-07-18T00:05:17;15.83;;;14.55;;
57846;SDS011;43675;50.030;21.952;2022-07-18T00:07:43;15.75;;;14.55;;
57846;SDS011;43675;50.030;21.952;2022-07-18T00:10:08;15.58;;;14.38;;
57846;SDS011;43675;50.030;21.952;2022-07-18T00:12:34;15.28;;;14.15;;
57846;SDS011;43675;50.030;21.952;2022-07-18T00:15:00;16.10;;;14.70;;
57846;SDS011;43675;50.030;21.952;2022-07-18T00:17:25;16.05;;;14.70;;
57846;SDS011;43675;50.030;21.952;2022-07-18T00:19:51;16.00;;;14.80;;
57846;SDS011;43675;50.030;21.952;2022-07-18T00:22:17;16.05;;;14.83;;
57846;SDS011;43675;50.030;21.952;2022-07-18T00:24:42;16.10;;;14.70;;
57846;SDS011;43675;50.030;21.952;2022-07-18T00:27:08;16.05;;;14.85;;
57846;SDS011;43675;50.030;21.952;2022-07-18T00:29:34;15.88;;;14.55;;
57846;SDS011;43675;50.030;21.952;2022-07-18T00:32:00;16.42;;;15.03;;
57846;SDS011;43675;50.030;21.952;2022-07-18T00:34:26;16.27;;;15.08;;
57846;SDS011;43675;50.030;21.952;2022-07-18T00:36:51;15.80;;;14.60;;
57846;SDS011;43675;50.030;21.952;2022-07-18T00:39:17;16.57;;;15.08;;
57846;SDS011;43675;50.030;21.952;2022-07-18T00:41:46;16.45;;;15.08;;
57846;SDS011;43675;50.030;21.952;2022-07-18T00:44:22;16.60;;;15.10;;
57846;SDS011;43675;50.030;21.952;2022-07-18T00:46:49;16.82;;;15.20;;
57846;SDS011;43675;50.030;21.952;2022-07-18T00:49:17;16.65;;;15.10;;
57846;SDS011;43675;50.030;21.952;2022-07-18T00:51:43;16.48;;;15.10;;
57846;SDS011;43675;50.030;21.952;2022-07-18T00:54:09;16.87;;;15.50;;
57846;SDS011;43675;50.030;21.952;2022-07-18T00:56:34;16.77;;;15.28;;
57846;SDS011;43675;50.030;21.952;2022-07-18T00:59:00;15.93;;;14.70;;
57846;SDS011;43675;50.030;21.952;2022-07-18T01:01:26;17.07;;;15.58;;
57846;SDS011;43675;50.030;21.952;2022-07-18T01:03:51;16.37;;;14.98;;
57846;SDS011;43675;50.030;21.952;2022-07-18T01:06:17;16.30;;;15.05;;
57846;SDS011;43675;50.030;21.952;2022-07-18T01:08:42;15.88;;;14.68;;
57846;SDS011;43675;50.030;21.952;2022-07-18T01:11:09;16.05;;;14.73;;
57846;SDS011;43675;50.030;21.952;2022-07-18T01:13:35;15.98;;;14.68;;
57846;SDS011;43675;50.030;21.952;2022-07-18T01:16:02;15.90;;;14.70;;
57846;SDS011;43675;50.030;21.952;2022-07-18T01:18:28;15.90;;;14.70;;
57846;SDS011;43675;50.030;21.952;2022-07-18T01:20:53;16.60;;;15.25;;
57846;SDS011;43675;50.030;21.952;2022-07-18T01:23:19;16.07;;;14.70;;
57846;SDS011;43675;50.030;21.952;2022-07-18T01:25:45;16.62;;;15.43;;
57846;SDS011;43675;50.030;21.952;2022-07-18T01:28:11;16.30;;;15.03;;
57846;SDS011;43675;50.030;21.952;2022-07-18T01:30:36;16.12;;;14.93;;
57846;SDS011;43675;50.030;21.952;2022-07-18T01:33:02;16.30;;;15.10;;
57846;SDS011;43675;50.030;21.952;2022-07-18T01:35:28;17.15;;;15.55;;
57846;SDS011;43675;50.030;21.952;2022-07-18T01:37:57;16.82;;;15.43;;
57846;SDS011;43675;50.030;21.952;2022-07-18T01:40:24;16.97;;;15.40;;
57846;SDS011;43675;50.030;21.952;2022-07-18T01:42:51;17.02;;;15.63;;
57846;SDS011;43675;50.030;21.952;2022-07-18T01:45:17;15.90;;;14.70;;
57846;SDS011;43675;50.030;21.952;2022-07-18T01:47:43;16.42;;;15.03;;
57846;SDS011;43675;50.030;21.952;2022-07-18T01:50:09;16.20;;;14.95;;
57846;SDS011;43675;50.030;21.952;2022-07-18T01:52:36;16.95;;;15.45;;
57846;SDS011;43675;50.030;21.952;2022-07-18T01:55:03;15.70;;;14.30;;
57846;SDS011;43675;50.030;21.952;2022-07-18T01:57:30;15.72;;;14.33;;
57846;SDS011;43675;50.030;21.952;2022-07-18T01:59:56;15.85;;;14.45;;
57846;SDS011;43675;50.030;21.952;2022-07-18T02:02:21;16.50;;;15.20;;
57846;SDS011;43675;50.030;21.952;2022-07-18T02:04:47;16.15;;;14.85;;
57846;SDS011;43675;50.030;21.952;2022-07-18T02:07:12;16.05;;;14.85;;
57846;SDS011;43675;50.030;21.952;2022-07-18T02:09:38;16.32;;;15.03;;
57846;SDS011;43675;50.030;21.952;2022-07-18T02:12:04;16.37;;;15.00;;
57846;SDS011;43675;50.030;21.952;2022-07-18T02:14:30;16.85;;;15.38;;
57846;SDS011;43675;50.030;21.952;2022-07-18T02:16:55;16.27;;;14.90;;
57846;SDS011;43675;50.030;21.952;2022-07-18T02:19:21;17.02;;;15.72;;
57846;SDS011;43675;50.030;21.952;2022-07-18T02:21:46;17.73;;;16.12;;
57846;SDS011;43675;50.030;21.952;2022-07-18T02:24:12;17.48;;;16.02;;
57846;SDS011;43675;50.030;21.952;2022-07-18T02:26:37;16.55;;;15.32;;
57846;SDS011;43675;50.030;21.952;2022-07-18T02:29:03;18.05;;;16.48;;
57846;SDS011;43675;50.030;21.952;2022-07-18T02:31:29;17.65;;;16.15;;
57846;SDS011;43675;50.030;21.952;2022-07-18T02:33:54;18.15;;;16.40;;
57846;SDS011;43675;50.030;21.952;2022-07-18T02:36:20;17.07;;;15.80;;
57846;SDS011;43675;50.030;21.952;2022-07-18T02:38:45;16.82;;;15.63;;
57846;SDS011;43675;50.030;21.952;2022-07-18T02:41:11;16.75;;;15.55;;
57846;SDS011;43675;50.030;21.952;2022-07-18T02:43:36;17.12;;;15.83;;
57846;SDS011;43675;50.030;21.952;2022-07-18T02:46:02;16.07;;;14.47;;
57846;SDS011;43675;50.030;21.952;2022-07-18T02:48:28;16.50;;;15.10;;
57846;SDS011;43675;50.030;21.952;2022-07-18T02:50:54;15.53;;;14.23;;
57846;SDS011;43675;50.030;21.952;2022-07-18T02:53:19;16.32;;;14.95;;
57846;SDS011;43675;50.030;21.952;2022-07-18T02:55:45;16.65;;;15.28;;
57846;SDS011;43675;50.030;21.952;2022-07-18T02:58:11;17.07;;;15.58;;
57846;SDS011;43675;50.030;21.952;2022-07-18T03:00:36;16.95;;;15.45;;
57846;SDS011;43675;50.030;21.952;2022-07-18T03:03:02;17.52;;;16.02;;
57846;SDS011;43675;50.030;21.952;2022-07-18T03:05:27;17.52;;;16.02;;
57846;SDS011;43675;50.030;21.952;2022-07-18T03:07:53;18.55;;;16.07;;
57846;SDS011;43675;50.030;21.952;2022-07-18T03:10:19;17.32;;;15.93;;
57846;SDS011;43675;50.030;21.952;2022-07-18T03:12:44;17.15;;;15.88;;
57846;SDS011;43675;50.030;21.952;2022-07-18T03:15:10;17.25;;;15.65;;
57846;SDS011;43675;50.030;21.952;2022-07-18T03:17:35;17.57;;;16.17;;
57846;SDS011;43675;50.030;21.952;2022-07-18T03:20:01;17.87;;;16.05;;
57846;SDS011;43675;50.030;21.952;2022-07-18T03:22:28;18.12;;;16.32;;
57846;SDS011;43675;50.030;21.952;2022-07-18T03:24:53;17.82;;;16.00;;
57846;SDS011;43675;50.030;21.952;2022-07-18T03:27:19;17.48;;;15.90;;
57846;SDS011;43675;50.030;21.952;2022-07-18T03:29:45;17.07;;;15.63;;
57846;SDS011;43675;50.030;21.952;2022-07-18T03:32:10;17.00;;;15.70;;
57846;SDS011;43675;50.030;21.952;2022-07-18T03:34:36;17.20;;;15.63;;
57846;SDS011;43675;50.030;21.952;2022-07-18T03:37:02;16.35;;;14.95;;
57846;SDS011;43675;50.030;21.952;2022-07-18T03:39:27;17.12;;;15.72;;
57846;SDS011;43675;50.030;21.952;2022-07-18T03:41:53;16.65;;;14.90;;
57846;SDS011;43675;50.030;21.952;2022-07-18T03:44:18;16.60;;;14.83;;
57846;SDS011;43675;50.030;21.952;2022-07-18T03:46:44;17.00;;;15.43;;
57846;SDS011;43675;50.030;21.952;2022-07-18T03:49:10;16.80;;;15.28;;
57846;SDS011;43675;50.030;21.952;2022-07-18T03:51:35;16.82;;;15.35;;
57846;SDS011;43675;50.030;21.952;2022-07-18T03:54:01;16.50;;;15.08;;
57846;SDS011;43675;50.030;21.952;2022-07-18T03:56:26;15.80;;;14.55;;
57846;SDS011;43675;50.030;21.952;2022-07-18T03:58:52;16.52;;;15.15;;
57846;SDS011;43675;50.030;21.952;2022-07-18T04:01:18;16.50;;;14.98;;
57846;SDS011;43675;50.030;21.952;2022-07-18T04:03:43;16.70;;;15.08;;
57846;SDS011;43675;50.030;21.952;2022-07-18T04:06:09;16.40;;;15.05;;
57846;SDS011;43675;50.030;21.952;2022-07-18T04:08:34;15.85;;;14.55;;
57846;SDS011;43675;50.030;21.952;2022-07-18T04:11:00;16.20;;;14.90;;
57846;SDS011;43675;50.030;21.952;2022-07-18T04:13:25;16.37;;;15.00;;
57846;SDS011;43675;50.030;21.952;2022-07-18T04:15:51;16.20;;;14.80;;
57846;SDS011;43675;50.030;21.952;2022-07-18T04:18:17;16.52;;;14.90;;
57846;SDS011;43675;50.030;21.952;2022-07-18T04:20:42;16.17;;;14.65;;
57846;SDS011;43675;50.030;21.952;2022-07-18T04:23:08;16.00;;;14.70;;
57846;SDS011;43675;50.030;21.952;2022-07-18T04:25:36;16.37;;;15.08;;
57846;SDS011;43675;50.030;21.952;2022-07-18T04:28:04;16.30;;;14.90;;
57846;SDS011;43675;50.030;21.952;2022-07-18T04:30:30;15.90;;;14.70;;
57846;SDS011;43675;50.030;21.952;2022-07-18T04:32:56;16.12;;;14.75;;
57846;SDS011;43675;50.030;21.952;2022-07-18T04:35:22;16.05;;;14.70;;
57846;SDS011;43675;50.030;21.952;2022-07-18T04:37:49;16.25;;;14.75;;
57846;SDS011;43675;50.030;21.952;2022-07-18T04:40:16;16.45;;;14.78;;
57846;SDS011;43675;50.030;21.952;2022-07-18T04:42:42;16.40;;;15.10;;
57846;SDS011;43675;50.030;21.952;2022-07-18T04:45:08;16.30;;;15.03;;
57846;SDS011;43675;50.030;21.952;2022-07-18T04:47:35;16.82;;;15.20;;
57846;SDS011;43675;50.030;21.952;2022-07-18T04:50:01;16.52;;;15.08;;
57846;SDS011;43675;50.030;21.952;2022-07-18T04:52:27;16.93;;;15.32;;
57846;SDS011;43675;50.030;21.952;2022-07-18T04:55:08;16.17;;;14.83;;
57846;SDS011;43675;50.030;21.952;2022-07-18T04:57:36;17.23;;;15.68;;
57846;SDS011;43675;50.030;21.952;2022-07-18T05:00:10;17.05;;;15.65;;
57846;SDS011;43675;50.030;21.952;2022-07-18T05:02:41;16.70;;;15.30;;
57846;SDS011;43675;50.030;21.952;2022-07-18T05:05:08;16.15;;;14.85;;
57846;SDS011;43675;50.030;21.952;2022-07-18T05:07:34;16.90;;;15.40;;
57846;SDS011;43675;50.030;21.952;2022-07-18T05:10:00;16.80;;;15.48;;
57846;SDS011;43675;50.030;21.952;2022-07-18T05:12:26;16.48;;;15.00;;
57846;SDS011;43675;50.030;21.952;2022-07-18T05:14:51;16.52;;;15.23;;
57846;SDS011;43675;50.030;21.952;2022-07-18T05:17:17;16.55;;;15.05;;
57846;SDS011;43675;50.030;21.952;2022-07-18T05:19:43;16.77;;;14.90;;
57846;SDS011;43675;50.030;21.952;2022-07-18T05:22:08;16.20;;;14.87;;
57846;SDS011;43675;50.030;21.952;2022-07-18T05:24:34;15.70;;;14.15;;
57846;SDS011;43675;50.030;21.952;2022-07-18T05:26:59;15.85;;;14.40;;
57846;SDS011;43675;50.030;21.952;2022-07-18T05:29:25;16.80;;;14.98;;
57846;SDS011;43675;50.030;21.952;2022-07-18T05:31:50;15.32;;;14.13;;
57846;SDS011;43675;50.030;21.952;2022-07-18T05:34:16;15.70;;;14.55;;
57846;SDS011;43675;50.030;21.952;2022-07-18T05:36:42;17.85;;;16.30;;
57846;SDS011;43675;50.030;21.952;2022-07-18T05:39:07;17.92;;;16.60;;
57846;SDS011;43675;50.030;21.952;2022-07-18T05:41:33;18.17;;;16.50;;
57846;SDS011;43675;50.030;21.952;2022-07-18T05:43:58;17.20;;;16.00;;
57846;SDS011;43675;50.030;21.952;2022-07-18T05:46:24;17.42;;;16.02;;
57846;SDS011;43675;50.030;21.952;2022-07-18T05:48:50;17.70;;;16.37;;
57846;SDS011;43675;50.030;21.952;2022-07-18T05:51:15;18.87;;;17.37;;
57846;SDS011;43675;50.030;21.952;2022-07-18T05:53:41;18.07;;;16.57;;
57846;SDS011;43675;50.030;21.952;2022-07-18T05:56:07;18.30;;;16.80;;
57846;SDS011;43675;50.030;21.952;2022-07-18T05:58:33;18.00;;;16.60;;
57846;SDS011;43675;50.030;21.952;2022-07-18T06:00:59;17.75;;;16.35;;
57846;SDS011;43675;50.030;21.952;2022-07-18T06:03:24;18.75;;;17.00;;
57846;SDS011;43675;50.030;21.952;2022-07-18T06:05:50;17.55;;;16.12;;
57846;SDS011;43675;50.030;21.952;2022-07-18T06:08:15;17.70;;;16.40;;
57846;SDS011;43675;50.030;21.952;2022-07-18T06:10:41;18.02;;;16.50;;
57846;SDS011;43675;50.030;21.952;2022-07-18T06:13:07;18.25;;;16.75;;
57846;SDS011;43675;50.030;21.952;2022-07-18T06:15:32;17.70;;;16.20;;
57846;SDS011;43675;50.030;21.952;2022-07-18T06:17:58;17.75;;;16.45;;
57846;SDS011;43675;50.030;21.952;2022-07-18T06:20:24;17.40;;;16.10;;
57846;SDS011;43675;50.030;21.952;2022-07-18T06:22:50;18.15;;;16.55;;
57846;SDS011;43675;50.030;21.952;2022-07-18T06:25:15;17.17;;;15.95;;
57846;SDS011;43675;50.030;21.952;2022-07-18T06:27:41;18.30;;;16.80;;
57846;SDS011;43675;50.030;21.952;2022-07-18T06:30:07;17.45;;;16.05;;
57846;SDS011;43675;50.030;21.952;2022-07-18T06:32:33;18.40;;;16.90;;
57846;SDS011;43675;50.030;21.952;2022-07-18T06:34:59;18.55;;;17.05;;
57846;SDS011;43675;50.030;21.952;2022-07-18T06:37:25;18.27;;;16.77;;
57846;SDS011;43675;50.030;21.952;2022-07-18T06:39:50;18.40;;;16.80;;
57846;SDS011;43675;50.030;21.952;2022-07-18T06:42:16;18.62;;;17.00;;
57846;SDS011;43675;50.030;21.952;2022-07-18T06:44:41;17.70;;;16.10;;
57846;SDS011;43675;50.030;21.952;2022-07-18T06:47:07;17.57;;;16.25;;
57846;SDS011;43675;50.030;21.952;2022-07-18T06:49:32;17.25;;;15.95;;
57846;SDS011;43675;50.030;21.952;2022-07-18T06:51:58;18.92;;;17.27;;
57846;SDS011;43675;50.030;21.952;2022-07-18T06:54:24;17.95;;;16.48;;
57846;SDS011;43675;50.030;21.952;2022-07-18T06:56:49;17.95;;;16.55;;
57846;SDS011;43675;50.030;21.952;2022-07-18T06:59:15;17.57;;;15.93;;
57846;SDS011;43675;50.030;21.952;2022-07-18T07:01:40;17.52;;;16.12;;
57846;SDS011;43675;50.030;21.952;2022-07-18T07:04:06;17.90;;;16.50;;
57846;SDS011;43675;50.030;21.952;2022-07-18T07:06:31;17.45;;;16.05;;
57846;SDS011;43675;50.030;21.952;2022-07-18T07:08:57;18.23;;;16.93;;
57846;SDS011;43675;50.030;21.952;2022-07-18T07:11:23;20.60;;;18.90;;
57846;SDS011;43675;50.030;21.952;2022-07-18T07:13:48;18.37;;;16.87;;
57846;SDS011;43675;50.030;21.952;2022-07-18T07:16:14;18.00;;;16.60;;
57846;SDS011;43675;50.030;21.952;2022-07-18T07:18:39;18.50;;;16.95;;
57846;SDS011;43675;50.030;21.952;2022-07-18T07:21:05;15.93;;;14.63;;
57846;SDS011;43675;50.030;21.952;2022-07-18T07:23:31;16.80;;;15.15;;
57846;SDS011;43675;50.030;21.952;2022-07-18T07:25:57;15.90;;;14.70;;
57846;SDS011;43675;50.030;21.952;2022-07-18T07:28:22;16.20;;;14.98;;
57846;SDS011;43675;50.030;21.952;2022-07-18T07:30:48;16.02;;;14.47;;
57846;SDS011;43675;50.030;21.952;2022-07-18T07:33:14;16.60;;;15.30;;
57846;SDS011;43675;50.030;21.952;2022-07-18T07:35:39;16.40;;;15.10;;
57846;SDS011;43675;50.030;21.952;2022-07-18T07:38:05;16.30;;;14.90;;
57846;SDS011;43675;50.030;21.952;2022-07-18T07:40:30;17.10;;;15.30;;
57846;SDS011;43675;50.030;21.952;2022-07-18T07:43:10;16.50;;;14.68;;
57846;SDS011;43675;50.030;21.952;2022-07-18T07:45:34;16.30;;;14.63;;
57846;SDS011;43675;50.030;21.952;2022-07-18T07:48:00;17.23;;;15.13;;
57846;SDS011;43675;50.030;21.952;2022-07-18T07:50:26;16.60;;;14.83;;
57846;SDS011;43675;50.030;21.952;2022-07-18T07:52:52;16.70;;;15.40;;
57846;SDS011;43675;50.030;21.952;2022-07-18T07:55:18;16.65;;;15.15;;
57846;SDS011;43675;50.030;21.952;2022-07-18T07:57:43;16.00;;;14.50;;
57846;SDS011;43675;50.030;21.952;2022-07-18T08:00:09;16.90;;;15.50;;
57846;SDS011;43675;50.030;21.952;2022-07-18T08:02:35;16.45;;;15.15;;
57846;SDS011;43675;50.030;21.952;2022-07-18T08:05:01;17.07;;;15.28;;
57846;SDS011;43675;50.030;21.952;2022-07-18T08:07:28;16.50;;;15.10;;
57846;SDS011;43675;50.030;21.952;2022-07-18T08:09:53;16.60;;;15.10;;
57846;SDS011;43675;50.030;21.952;2022-07-18T08:12:19;17.15;;;15.58;;
57846;SDS011;43675;50.030;21.952;2022-07-18T08:14:45;16.90;;;15.40;;
57846;SDS011;43675;50.030;21.952;2022-07-18T08:17:10;16.90;;;15.38;;
57846;SDS011;43675;50.030;21.952;2022-07-18T08:19:36;16.62;;;15.13;;
57846;SDS011;43675;50.030;21.952;2022-07-18T08:22:01;16.48;;;15.08;;
57846;SDS011;43675;50.030;21.952;2022-07-18T08:24:27;16.97;;;15.48;;
57846;SDS011;43675;50.030;21.952;2022-07-18T08:26:52;17.07;;;15.45;;
57846;SDS011;43675;50.030;21.952;2022-07-18T08:29:18;16.57;;;15.05;;
57846;SDS011;43675;50.030;21.952;2022-07-18T08:31:43;17.35;;;15.55;;
57846;SDS011;43675;50.030;21.952;2022-07-18T08:34:09;16.95;;;15.55;;
57846;SDS011;43675;50.030;21.952;2022-07-18T08:36:35;17.50;;;15.90;;
57846;SDS011;43675;50.030;21.952;2022-07-18T08:39:00;17.05;;;15.48;;
57846;SDS011;43675;50.030;21.952;2022-07-18T08:41:26;16.80;;;15.00;;
57846;SDS011;43675;50.030;21.952;2022-07-18T08:43:53;17.32;;;15.83;;
57846;SDS011;43675;50.030;21.952;2022-07-18T08:46:21;17.85;;;16.12;;
57846;SDS011;43675;50.030;21.952;2022-07-18T08:48:50;16.80;;;15.32;;
57846;SDS011;43675;50.030;21.952;2022-07-18T08:51:16;17.05;;;15.50;;
57846;SDS011;43675;50.030;21.952;2022-07-18T08:53:43;17.40;;;15.75;;
57846;SDS011;43675;50.030;21.952;2022-07-18T08:56:12;17.23;;;15.72;;
57846;SDS011;43675;50.030;21.952;2022-07-18T08:58:37;17.90;;;16.07;;
57846;SDS011;43675;50.030;21.952;2022-07-18T09:01:03;17.27;;;15.80;;
57846;SDS011;43675;50.030;21.952;2022-07-18T09:03:29;17.67;;;16.07;;
57846;SDS011;43675;50.030;21.952;2022-07-18T09:06:04;17.82;;;16.23;;
57846;SDS011;43675;50.030;21.952;2022-07-18T09:08:32;16.80;;;15.40;;
57846;SDS011;43675;50.030;21.952;2022-07-18T09:10:59;16.82;;;15.35;;
57846;SDS011;43675;50.030;21.952;2022-07-18T09:13:35;17.77;;;16.07;;
57846;SDS011;43675;50.030;21.952;2022-07-18T09:16:02;17.00;;;15.60;;
57846;SDS011;43675;50.030;21.952;2022-07-18T09:18:40;17.48;;;15.83;;
57846;SDS011;43675;50.030;21.952;2022-07-18T09:21:11;17.37;;;15.80;;
57846;SDS011;43675;50.030;21.952;2022-07-18T09:23:43;17.45;;;15.78;;
57846;SDS011;43675;50.030;21.952;2022-07-18T09:26:11;17.07;;;15.72;;
57846;SDS011;43675;50.030;21.952;2022-07-18T09:28:47;17.52;;;15.88;;
57846;SDS011;43675;50.030;21.952;2022-07-18T09:31:22;18.05;;;16.45;;
57846;SDS011;43675;50.030;21.952;2022-07-18T09:33:56;16.87;;;15.60;;
57846;SDS011;43675;50.030;21.952;2022-07-18T09:36:23;18.07;;;16.50;;
57846;SDS011;43675;50.030;21.952;2022-07-18T09:38:49;18.02;;;16.32;;
57846;SDS011;43675;50.030;21.952;2022-07-18T09:41:15;18.42;;;16.87;;
57846;SDS011;43675;50.030;21.952;2022-07-18T09:43:41;17.52;;;16.12;;
57846;SDS011;43675;50.030;21.952;2022-07-18T09:46:07;16.77;;;15.28;;
57846;SDS011;43675;50.030;21.952;2022-07-18T09:48:33;16.42;;;15.13;;
57846;SDS011;43675;50.030;21.952;2022-07-18T09:51:00;16.77;;;15.38;;
57846;SDS011;43675;50.030;21.952;2022-07-18T09:53:31;16.75;;;15.35;;
57846;SDS011;43675;50.030;21.952;2022-07-18T09:55:59;17.20;;;15.45;;
57846;SDS011;43675;50.030;21.952;2022-07-18T09:58:38;16.17;;;14.87;;
57846;SDS011;43675;50.030;21.952;2022-07-18T10:01:09;16.95;;;15.20;;
57846;SDS011;43675;50.030;21.952;2022-07-18T10:03:36;16.85;;;15.35;;
57846;SDS011;43675;50.030;21.952;2022-07-18T10:06:02;16.55;;;14.95;;
57846;SDS011;43675;50.030;21.952;2022-07-18T10:08:30;16.55;;;15.10;;
57846;SDS011;43675;50.030;21.952;2022-07-18T10:10:57;16.60;;;15.13;;
57846;SDS011;43675;50.030;21.952;2022-07-18T10:13:25;16.60;;;15.18;;
57846;SDS011;43675;50.030;21.952;2022-07-18T10:15:52;17.32;;;15.68;;
57846;SDS011;43675;50.030;21.952;2022-07-18T10:18:20;16.95;;;15.65;;
57846;SDS011;43675;50.030;21.952;2022-07-18T10:20:52;16.12;;;14.85;;
57846;SDS011;43675;50.030;21.952;2022-07-18T10:23:20;16.55;;;15.25;;
57846;SDS011;43675;50.030;21.952;2022-07-18T10:31:29;16.73;;;15.30;;
57846;SDS011;43675;50.030;21.952;2022-07-18T10:39:17;17.27;;;15.68;;
57846;SDS011;43675;50.030;21.952;2022-07-18T10:57:41;16.17;;;14.87;;
57846;SDS011;43675;50.030;21.952;2022-07-18T11:00:12;16.95;;;15.32;;
57846;SDS011;43675;50.030;21.952;2022-07-18T11:02:41;17.02;;;15.58;;
57846;SDS011;43675;50.030;21.952;2022-07-18T11:13:22;16.87;;;15.45;;
57846;SDS011;43675;50.030;21.952;2022-07-18T11:15:56;16.87;;;15.38;;
57846;SDS011;43675;50.030;21.952;2022-07-18T11:18:24;16.70;;;15.50;;
57846;SDS011;43675;50.030;21.952;2022-07-18T11:20:50;16.60;;;15.30;;
57846;SDS011;43675;50.030;21.952;2022-07-18T11:23:20;17.07;;;15.53;;
57846;SDS011;43675;50.030;21.952;2022-07-18T11:25:48;16.67;;;15.38;;
57846;SDS011;43675;50.030;21.952;2022-07-18T11:28:18;17.05;;;15.60;;
57846;SDS011;43675;50.030;21.952;2022-07-18T11:30:44;16.85;;;15.28;;
57846;SDS011;43675;50.030;21.952;2022-07-18T11:33:20;17.07;;;15.58;;
57846;SDS011;43675;50.030;21.952;2022-07-18T11:35:48;17.48;;;15.90;;
57846;SDS011;43675;50.030;21.952;2022-07-18T11:38:15;16.90;;;15.63;;
57846;SDS011;43675;50.030;21.952;2022-07-18T11:40:47;16.95;;;15.55;;
57846;SDS011;43675;50.030;21.952;2022-07-18T11:43:23;18.12;;;16.35;;
57846;SDS011;43675;50.030;21.952;2022-07-18T11:46:04;16.65;;;14.98;;
57846;SDS011;43675;50.030;21.952;2022-07-18T11:48:32;16.67;;;15.13;;
57846;SDS011;43675;50.030;21.952;2022-07-18T11:50:59;16.10;;;14.70;;
57846;SDS011;43675;50.030;21.952;2022-07-18T11:53:25;16.27;;;14.93;;
57846;SDS011;43675;50.030;21.952;2022-07-18T11:55:52;15.70;;;14.50;;
57846;SDS011;43675;50.030;21.952;2022-07-18T11:58:19;15.90;;;14.60;;
57846;SDS011;43675;50.030;21.952;2022-07-18T12:00:45;15.72;;;14.53;;
57846;SDS011;43675;50.030;21.952;2022-07-18T12:03:15;15.98;;;14.68;;
57846;SDS011;43675;50.030;21.952;2022-07-18T12:05:48;16.60;;;15.23;;
57846;SDS011;43675;50.030;21.952;2022-07-18T12:08:36;16.75;;;15.20;;
57846;SDS011;43675;50.030;21.952;2022-07-18T12:13:50;16.75;;;15.15;;
57846;SDS011;43675;50.030;21.952;2022-07-18T12:16:32;16.35;;;15.05;;
57846;SDS011;43675;50.030;21.952;2022-07-18T12:19:04;16.35;;;15.05;;
57846;SDS011;43675;50.030;21.952;2022-07-18T12:21:46;17.25;;;15.65;;
57846;SDS011;43675;50.030;21.952;2022-07-18T12:24:32;16.52;;;15.00;;
57846;SDS011;43675;50.030;21.952;2022-07-18T12:27:07;17.95;;;16.37;;
57846;SDS011;43675;50.030;21.952;2022-07-18T12:32:26;15.88;;;14.68;;
57846;SDS011;43675;50.030;21.952;2022-07-18T12:35:02;15.30;;;14.20;;
57846;SDS011;43675;50.030;21.952;2022-07-18T12:37:32;16.50;;;14.90;;
57846;SDS011;43675;50.030;21.952;2022-07-18T12:40:00;16.70;;;15.25;;
57846;SDS011;43675;50.030;21.952;2022-07-18T12:42:35;16.48;;;15.18;;
57846;SDS011;43675;50.030;21.952;2022-07-18T12:44:59;16.52;;;15.20;;
57846;SDS011;43675;50.030;21.952;2022-07-18T12:47:25;16.55;;;15.25;;
57846;SDS011;43675;50.030;21.952;2022-07-18T12:49:51;16.87;;;15.40;;
57846;SDS011;43675;50.030;21.952;2022-07-18T12:52:18;15.93;;;14.70;;
57846;SDS011;43675;50.030;21.952;2022-07-18T12:54:44;16.32;;;14.90;;
57846;SDS011;43675;50.030;21.952;2022-07-18T12:57:11;16.35;;;15.05;;
57846;SDS011;43675;50.030;21.952;2022-07-18T12:59:36;15.88;;;14.70;;
57846;SDS011;43675;50.030;21.952;2022-07-18T13:02:03;15.90;;;14.68;;
57846;SDS011;43675;50.030;21.952;2022-07-18T13:04:29;14.93;;;13.78;;
57846;SDS011;43675;50.030;21.952;2022-07-18T13:06:55;14.93;;;13.72;;
57846;SDS011;43675;50.030;21.952;2022-07-18T13:09:20;19.40;;;14.28;;
57846;SDS011;43675;50.030;21.952;2022-07-18T13:11:46;15.50;;;14.20;;
57846;SDS011;43675;50.030;21.952;2022-07-18T13:14:11;15.90;;;14.70;;
57846;SDS011;43675;50.030;21.952;2022-07-18T13:16:37;15.90;;;14.70;;
57846;SDS011;43675;50.030;21.952;2022-07-18T13:19:03;15.80;;;14.60;;
57846;SDS011;43675;50.030;21.952;2022-07-18T13:21:28;15.60;;;14.25;;
57846;SDS011;43675;50.030;21.952;2022-07-18T13:23:54;15.72;;;14.53;;
57846;SDS011;43675;50.030;21.952;2022-07-18T13:26:19;16.25;;;14.95;;
57846;SDS011;43675;50.030;21.952;2022-07-18T13:28:45;16.42;;;15.13;;
57846;SDS011;43675;50.030;21.952;2022-07-18T13:31:10;16.10;;;14.80;;
57846;SDS011;43675;50.030;21.952;2022-07-18T13:33:36;17.17;;;15.93;;
57846;SDS011;43675;50.030;21.952;2022-07-18T13:36:02;16.20;;;14.68;;
57846;SDS011;43675;50.030;21.952;2022-07-18T13:38:27;14.58;;;13.55;;
57846;SDS011;43675;50.030;21.952;2022-07-18T13:40:53;15.53;;;14.33;;
57846;SDS011;43675;50.030;21.952;2022-07-18T13:43:19;15.30;;;14.20;;
57846;SDS011;43675;50.030;21.952;2022-07-18T13:45:44;15.60;;;14.28;;
57846;SDS011;43675;50.030;21.952;2022-07-18T13:48:10;16.27;;;15.08;;
57846;SDS011;43675;50.030;21.952;2022-07-18T13:50:36;16.20;;;15.00;;
57846;SDS011;43675;50.030;21.952;2022-07-18T13:53:02;15.28;;;14.18;;
57846;SDS011;43675;50.030;21.952;2022-07-18T13:55:27;15.23;;;14.13;;
57846;SDS011;43675;50.030;21.952;2022-07-18T13:57:53;15.88;;;14.68;;
57846;SDS011;43675;50.030;21.952;2022-07-18T14:00:18;15.93;;;14.53;;
57846;SDS011;43675;50.030;21.952;2022-07-18T14:02:44;14.85;;;13.65;;
57846;SDS011;43675;50.030;21.952;2022-07-18T14:05:10;16.23;;;14.73;;
57846;SDS011;43675;50.030;21.952;2022-07-18T14:07:36;14.45;;;13.38;;
57846;SDS011;43675;50.030;21.952;2022-07-18T14:10:01;22.27;;;20.08;;
57846;SDS011;43675;50.030;21.952;2022-07-18T14:12:28;14.58;;;13.58;;
57846;SDS011;43675;50.030;21.952;2022-07-18T14:14:53;13.90;;;13.00;;
57846;SDS011;43675;50.030;21.952;2022-07-18T14:17:19;14.98;;;13.90;;
57846;SDS011;43675;50.030;21.952;2022-07-18T14:19:44;14.45;;;13.40;;
57846;SDS011;43675;50.030;21.952;2022-07-18T14:22:10;14.15;;;13.15;;
57846;SDS011;43675;50.030;21.952;2022-07-18T14:24:36;15.10;;;14.10;;
57846;SDS011;43675;50.030;21.952;2022-07-18T14:27:01;14.00;;;13.00;;
57846;SDS011;43675;50.030;21.952;2022-07-18T14:29:27;14.75;;;13.65;;
57846;SDS011;43675;50.030;21.952;2022-07-18T14:31:52;14.60;;;13.50;;
57846;SDS011;43675;50.030;21.952;2022-07-18T14:34:18;15.10;;;13.90;;
57846;SDS011;43675;50.030;21.952;2022-07-18T14:36:43;15.53;;;14.23;;
57846;SDS011;43675;50.030;21.952;2022-07-18T14:39:09;14.55;;;13.08;;
57846;SDS011;43675;50.030;21.952;2022-07-18T14:41:34;15.50;;;14.05;;
57846;SDS011;43675;50.030;21.952;2022-07-18T14:44:00;15.28;;;14.18;;
57846;SDS011;43675;50.030;21.952;2022-07-18T14:46:26;15.15;;;14.05;;